KAKR/AKR METAR and TAF weather

Enter ICAO airport designator
Station Type Date Time Source
KAKR METAR 2019/05/27 08:54 UTC NOAA

KAKR 270854Z AUTO 35004KT 10SM CLR 14/11 A3004 RMK AO2 SLP167 T01440111 53001 $


Station Type Date Time Source
KAKR Decoded METAR 2019/05/27 08:54 UTC NOAA

AKRON FULTON INTERNATIONAL, OH, United States (KAKR) 41-02N 081-28W 363M
May 27, 2019 - 04:54 AM EDT / 2019.05.27 0854 UTC
Wind: from the N (350 degrees) at 5 MPH (4 KT):0
Visibility: 10 mile(s):0
Sky conditions: clear
Temperature: 57.9 F (14.4 C)
Dew Point: 52.0 F (11.1 C)
Relative Humidity: 80%
Pressure (altimeter): 30.04 in. Hg (1017 hPa)
Pressure tendency: 0.00 inches (0.1 hPa) higher than three hours ago
ob: KAKR 270854Z AUTO 35004KT 10SM CLR 14/11 A3004 RMK AO2 SLP167 T01440111 53001
cycle: 9

Station Type Date Time Source
KAKR TAF UTC NOAA

Error!

Example: see airport list